Time;durP1;ratioP1;P1;durP2;ratioP2;P2;SDS_P1;SDS_P2;PMS_P1;PMS_P2;Temp;Humidity;BMP_temperature;BMP_pressure;BME280_temperature;BME280_humidity;BME280_pressure;Samples;Min_cycle;Max_cycle;Signal;HPM_P1;HPM_P2
2022/11/12 00:01:50;;;;;;;;;30.25;25.00;;;;;16.64;59.03;102050.41;146615;585;46020;-80
2022/11/12 00:04:43;;;;;;;;;28.75;26.50;;;;;16.66;57.81;102059.22;146612;593;46014;-80
2022/11/12 00:07:38;;;;;;;;;22.00;19.50;;;;;16.67;57.06;102045.31;146617;608;46021;-79
2022/11/12 00:10:31;;;;;;;;;22.00;18.25;;;;;16.72;57.33;102042.91;146616;597;46012;-81
2022/11/12 00:13:39;;;;;;;;;18.50;14.75;;;;;16.72;56.98;102033.31;146617;571;46020;-80
2022/11/12 00:16:37;;;;;;;;;20.75;19.00;;;;;16.76;55.96;102024.84;146618;617;46012;-85
2022/11/12 00:19:31;;;;;;;;;19.00;17.25;;;;;16.79;56.07;102008.34;146619;579;46020;-87
2022/11/12 00:22:25;;;;;;;;;23.00;21.00;;;;;16.79;55.14;102013.56;146618;583;46014;-86
2022/11/12 00:25:27;;;;;;;;;23.50;21.00;;;;;16.81;56.14;102012.81;146619;617;46020;-82
2022/11/12 00:28:29;;;;;;;;;20.25;17.75;;;;;16.84;55.79;102012.06;146612;570;46017;-83
2022/11/12 00:31:36;;;;;;;;;24.00;21.75;;;;;16.81;55.86;102001.44;146618;609;46020;-82
2022/11/12 00:34:28;;;;;;;;;19.75;19.00;;;;;16.83;56.42;102010.28;146615;617;46016;-79
2022/11/12 00:37:25;;;;;;;;;25.00;20.75;;;;;16.83;57.77;102002.44;146618;611;46021;-78
2022/11/12 00:40:28;;;;;;;;;29.25;22.50;;;;;16.84;56.10;102001.59;146614;598;46016;-79
2022/11/12 00:43:32;;;;;;;;;26.75;24.50;;;;;16.81;56.74;101996.22;146619;692;46021;-73
2022/11/12 00:46:37;;;;;;;;;23.25;20.50;;;;;16.80;56.82;101994.44;146611;566;46016;-75
2022/11/12 00:49:32;;;;;;;;;30.00;27.50;;;;;16.77;56.90;101992.56;146618;637;46010;-75
2022/11/12 00:52:33;;;;;;;;;30.50;23.00;;;;;16.78;56.58;101996.06;146616;575;46016;-74
2022/11/12 00:55:36;;;;;;;;;24.50;21.75;;;;;16.77;58.05;101999.53;146620;603;46020;-74
2022/11/12 00:58:29;;;;;;;;;23.75;21.50;;;;;16.77;56.45;102002.16;146615;595;46021;-74
2022/11/12 01:01:31;;;;;;;;;22.75;20.25;;;;;16.70;56.41;101997.38;146616;566;46020;-75
2022/11/12 01:04:24;;;;;;;;;23.25;21.00;;;;;16.65;56.14;101998.91;146616;565;46012;-74
2022/11/12 01:07:16;;;;;;;;;21.50;20.00;;;;;16.53;59.25;102009.72;146619;570;46021;-76
2022/11/12 01:10:15;;;;;;;;;17.25;16.00;;;;;16.47;64.05;102010.31;146613;565;46016;-73
2022/11/12 01:13:13;;;;;;;;;17.75;15.75;;;;;16.40;62.58;102005.63;146619;660;46020;-73
2022/11/12 01:16:31;;;;;;;;;18.25;15.75;;;;;16.37;61.69;102015.94;146613;624;46016;-76
2022/11/12 01:19:36;;;;;;;;;16.00;13.25;;;;;16.35;60.92;102013.25;146618;604;46021;-74
2022/11/12 01:22:43;;;;;;;;;14.50;12.75;;;;;16.36;62.75;102022.91;146616;578;46016;-74
2022/11/12 01:25:44;;;;;;;;;5.75;3.00;;;;;16.35;59.45;102021.13;146618;585;47010;-79
2022/11/12 01:28:36;;;;;;;;;6.00;3.67;;;;;16.35;59.12;102022.81;146616;572;46017;-75
2022/11/12 01:31:49;;;;;;;;;;;;;;;;;;;;;
2022/11/12 01:34:50;;;;;;;;;0.00;0.00;;;;;16.29;55.83;102012.97;146620;651;46018;-75
2022/11/12 01:38:10;;;;;;;;;1.33;1.33;;;;;16.32;57.36;102018.34;146626;595;46012;-85
2022/11/12 01:41:02;;;;;;;;;2.00;1.00;;;;;16.35;57.97;102014.94;146621;630;46016;-84
2022/11/12 01:44:41;;;;;;;;;1.67;0.33;;;;;16.38;58.90;102015.09;146626;620;46010;-76
2022/11/12 01:47:49;;;;;;;;;1.67;1.00;;;;;16.45;57.87;102011.97;146618;603;47014;-80
2022/11/12 01:50:45;;;;;;;;;1.67;1.67;;;;;16.48;57.11;102008.56;146620;662;46021;-79
2022/11/12 01:53:49;;;;;;;;;2.67;1.00;;;;;16.49;57.72;102013.91;146617;686;46016;-77
2022/11/12 01:56:46;;;;;;;;;2.33;1.67;;;;;16.53;57.40;102021.06;146624;596;46020;-79
2022/11/12 02:00:05;;;;;;;;;5.00;4.00;;;;;16.55;58.38;102019.44;146621;598;46014;-79
2022/11/12 02:03:13;;;;;;;;;10.25;9.00;;;;;16.59;59.69;102021.38;146626;661;46010;-75
2022/11/12 02:06:28;;;;;;;;;13.00;10.00;;;;;16.54;60.83;102008.88;146618;569;46012;-79
2022/11/12 02:09:44;;;;;;;;;13.25;11.25;;;;;16.61;62.50;102029.31;146618;566;46020;-73
2022/11/12 02:16:00;;;;;;;;;14.00;13.25;;;;;16.55;62.49;102029.03;146617;586;46022;-74
2022/11/12 02:18:53;;;;;;;;;7.25;7.25;;;;;16.49;62.68;102028.72;146617;576;46012;-72
2022/11/12 02:21:54;;;;;;;;;5.00;3.00;;;;;16.38;64.05;102038.66;146624;588;46020;-78
2022/11/12 02:24:51;;;;;;;;;3.50;3.50;;;;;16.26;64.90;102038.97;146617;631;46016;-76
2022/11/12 02:27:47;;;;;;;;;5.00;5.00;;;;;16.16;64.86;102037.59;146622;648;46021;-73
2022/11/12 02:31:09;;;;;;;;;6.00;4.00;;;;;16.11;65.34;102039.13;146620;571;46914;-76
2022/11/12 02:34:06;;;;;;;;;0.67;0.00;;;;;15.98;66.32;102036.72;146624;588;46010;-76
2022/11/12 02:37:13;;;;;;;;;2.00;2.00;;;;;15.86;65.46;102038.72;146618;672;46016;-78
2022/11/12 02:39:56;;;;;;;;;5.50;5.50;;;;;15.77;68.33;102041.75;146711;566;46015;-78
2022/11/12 02:42:48;;;;;;;;;7.50;7.00;;;;;15.67;66.99;102040.37;146626;656;46012;-76
2022/11/12 02:45:46;;;;;;;;;10.50;9.50;;;;;15.59;66.92;102046.91;146626;601;46020;-76
2022/11/12 02:48:40;;;;;;;;;11.00;10.25;;;;;15.51;68.79;102042.09;146621;570;46013;-74
2022/11/12 02:51:43;;;;;;;;;10.50;7.75;;;;;15.38;68.11;102032.69;146624;627;46010;-76
2022/11/12 02:54:36;;;;;;;;;11.50;10.50;;;;;15.37;71.30;102038.75;146622;606;47012;-76
2022/11/12 02:57:34;;;;;;;;;11.75;10.00;;;;;15.35;70.82;102043.00;146623;580;46020;-76
2022/11/12 03:00:36;;;;;;;;;12.75;8.50;;;;;15.31;70.84;102039.31;146616;675;46016;-76
2022/11/12 03:03:42;;;;;;;;;7.00;7.00;;;;;15.34;71.14;102039.50;146629;564;46021;-76
2022/11/12 03:06:34;;;;;;;;;3.00;3.00;;;;;15.34;71.84;102046.44;146622;634;47012;-71
2022/11/12 03:09:44;;;;;;;;;7.75;7.75;;;;;15.33;73.43;102035.09;146628;629;46020;-73
2022/11/12 03:12:40;;;;;;;;;3.75;3.00;;;;;15.27;71.45;102031.25;146625;594;46012;-71
2022/11/12 03:15:40;;;;;;;;;5.33;5.00;;;;;15.16;70.85;102031.56;146631;575;46010;-75
2022/11/12 03:18:44;;;;;;;;;4.33;3.67;;;;;15.08;68.75;102032.88;146623;608;46013;-73
2022/11/12 03:21:42;;;;;;;;;4.00;4.00;;;;;14.99;71.51;102027.16;146632;578;46029;-75
2022/11/12 03:24:35;;;;;;;;;3.33;2.67;;;;;14.95;70.56;102035.62;146623;616;46017;-71
2022/11/12 03:27:31;;;;;;;;;5.25;5.00;;;;;14.91;71.43;102034.56;146629;665;46020;-73
2022/11/12 03:30:26;;;;;;;;;5.00;5.00;;;;;14.77;72.89;102035.53;146620;661;47016;-72
2022/11/12 03:33:27;;;;;;;;;4.00;3.33;;;;;14.62;71.38;102050.37;146628;667;46011;-76
2022/11/12 03:36:21;;;;;;;;;1.00;1.00;;;;;14.55;71.57;102049.12;146620;571;46016;-75
2022/11/12 03:39:18;;;;;;;;;0.00;0.00;;;;;14.57;70.22;102052.69;146627;648;46020;-71
2022/11/12 03:42:13;;;;;;;;;1.33;1.33;;;;;14.60;69.08;102046.75;146624;650;46033;-73
2022/11/12 03:45:18;;;;;;;;;3.67;2.33;;;;;14.63;68.95;102054.75;146628;563;46020;-72
2022/11/12 03:48:13;;;;;;;;;1.00;1.00;;;;;13.34;68.00;101830.97;146622;627;47017;-72
2022/11/12 03:51:11;;;;;;;;;2.25;2.00;;;;;14.68;68.56;102075.09;146627;586;46020;-75
2022/11/12 03:54:11;;;;;;;;;1.00;1.00;;;;;14.72;69.08;102070.94;146623;667;46016;-75
2022/11/12 03:57:07;;;;;;;;;4.00;3.00;;;;;14.76;68.89;102076.41;146627;613;46012;-73
2022/11/12 04:00:17;;;;;;;;;6.67;6.00;;;;;14.78;68.40;102080.00;146627;619;46016;-78
2022/11/12 04:03:17;;;;;;;;;4.75;4.00;;;;;14.76;69.58;102081.63;146628;649;46021;-80
2022/11/12 04:09:44;;;;;;;;;;;;;;;;;;;;;
2022/11/12 04:22:37;;;;;;;;;4.50;3.00;;;;;14.68;70.44;102088.16;146631;708;46020;-75
2022/11/12 04:32:13;;;;;;;;;9.00;8.50;;;;;14.78;70.54;102093.06;146617;680;46013;-79
2022/11/12 04:35:11;;;;;;;;;9.00;8.00;;;;;14.77;70.93;102099.09;146630;602;46020;-74
2022/11/12 04:38:17;;;;;;;;;4.00;4.00;;;;;14.73;70.73;102091.88;146622;605;47015;-71
2022/11/12 04:47:46;;;;;;;;;2.67;2.00;;;;;14.67;70.71;102075.00;146626;664;46021;-76
2022/11/12 04:50:55;;;;;;;;;6.00;3.67;;;;;14.68;71.05;102077.69;146626;629;46016;-76
2022/11/12 04:53:54;;;;;;;;;5.67;3.33;;;;;14.71;71.61;102077.87;146627;575;46020;-80
2022/11/12 04:56:46;;;;;;;;;4.25;4.25;;;;;14.71;71.32;102080.47;146622;719;46016;-77
2022/11/12 04:59:41;;;;;;;;;4.33;3.00;;;;;14.67;71.97;102075.91;146632;630;46010;-76
2022/11/12 05:02:36;;;;;;;;;4.67;3.33;;;;;14.62;71.36;102073.84;146619;575;46017;-77
2022/11/12 05:05:35;;;;;;;;;6.00;6.00;;;;;14.58;71.30;102075.41;146626;602;46034;-74
2022/11/12 05:08:29;;;;;;;;;2.33;2.33;;;;;14.52;72.24;102075.94;146625;590;46014;-78
2022/11/12 05:11:31;;;;;;;;;;;;;;;;;;;;;
2022/11/12 05:14:32;;;;;;;;;4.00;3.75;;;;;14.40;71.97;102085.66;146621;588;46016;-81
2022/11/12 05:17:28;;;;;;;;;5.50;5.50;;;;;14.38;73.10;102094.19;146628;591;46012;-73
2022/11/12 05:20:27;;;;;;;;;6.00;5.00;;;;;13.33;73.32;101923.88;146622;705;46016;-74
2022/11/12 05:23:27;;;;;;;;;6.00;6.00;;;;;14.29;73.83;102102.38;146624;610;47010;-75
2022/11/12 05:26:19;;;;;;;;;6.75;6.50;;;;;14.22;73.02;102103.75;146625;648;46014;-75
2022/11/12 05:29:14;;;;;;;;;9.75;7.00;;;;;14.27;72.61;102104.03;146629;660;46020;-73
2022/11/12 05:32:08;;;;;;;;;7.00;7.00;;;;;14.31;73.40;102119.03;146626;580;46012;-72
2022/11/12 05:35:03;;;;;;;;;10.75;7.25;;;;;14.35;72.83;102117.50;146626;620;46020;-72
2022/11/12 05:38:03;;;;;;;;;8.25;7.50;;;;;14.37;72.83;102113.28;146623;695;46013;-72
2022/11/12 05:40:58;;;;;;;;;9.25;8.00;;;;;14.45;73.67;102119.81;146622;598;46020;-73
2022/11/12 05:43:53;;;;;;;;;8.50;7.25;;;;;14.49;73.33;102129.66;146618;662;46017;-71
2022/11/12 05:46:49;;;;;;;;;6.25;6.25;;;;;14.50;72.43;102124.50;146621;730;46010;-72
2022/11/12 05:49:46;;;;;;;;;7.75;7.75;;;;;14.51;71.71;102125.44;146618;652;46033;-73
2022/11/12 05:52:39;;;;;;;;;7.25;6.50;;;;;14.49;71.73;102122.72;146619;578;46020;-70
2022/11/12 05:55:34;;;;;;;;;6.25;6.25;;;;;14.49;72.20;102127.94;146616;630;46024;-70
2022/11/12 05:58:37;;;;;;;;;7.50;7.25;;;;;14.45;72.46;102125.94;146619;634;46020;-69
2022/11/12 06:01:37;;;;;;;;;13.75;11.75;;;;;14.40;72.92;102127.41;146614;650;46014;-70
2022/11/12 06:04:41;;;;;;;;;17.75;15.50;;;;;14.37;72.17;102140.28;146614;626;46012;-70
2022/11/12 06:07:44;;;;;;;;;18.25;16.75;;;;;14.37;72.77;102139.38;146606;564;48012;-70
2022/11/12 06:10:51;;;;;;;;;15.75;14.50;;;;;14.39;73.77;102137.72;146614;599;46020;-83
2022/11/12 06:13:45;;;;;;;;;14.75;14.00;;;;;14.33;73.97;102125.25;146607;566;46016;-84
2022/11/12 06:16:54;;;;;;;;;22.00;17.75;;;;;14.14;72.67;102091.94;146614;624;46020;-86
2022/11/12 06:19:49;;;;;;;;;18.00;16.00;;;;;14.37;73.65;102135.06;146612;577;46917;-80
2022/11/12 06:22:44;;;;;;;;;13.25;13.25;;;;;14.42;73.23;102130.97;146612;564;46011;-79
2022/11/12 06:25:47;;;;;;;;;19.00;18.00;;;;;14.45;73.78;102130.25;146611;595;46034;-82
2022/11/12 06:28:50;;;;;;;;;42.50;34.00;;;;;14.58;73.72;102142.34;146614;565;46020;-83
2022/11/12 06:31:49;;;;;;;;;46.25;36.50;;;;;14.62;73.93;102137.41;146612;589;46016;-79
2022/11/12 06:34:43;;;;;;;;;14.00;13.00;;;;;14.71;73.53;102121.37;146619;602;45020;-77
2022/11/12 06:37:41;;;;;;;;;12.50;12.50;;;;;14.78;73.13;102123.50;146609;575;46017;-77
2022/11/12 06:40:45;;;;;;;;;14.75;12.25;;;;;14.83;73.41;102123.75;146639;570;45010;-77
2022/11/12 06:43:53;;;;;;;;;10.25;9.00;;;;;14.89;73.67;102118.88;146633;630;46015;-78
2022/11/12 06:46:51;;;;;;;;;78.67;71.33;;;;;14.92;72.62;102119.03;146640;584;46020;-76
2022/11/12 06:49:59;;;;;;;;;35.50;31.25;;;;;14.92;72.52;102124.25;146633;563;45033;-78
2022/11/12 06:52:56;;;;;;;;;18.25;17.00;;;;;14.89;73.60;102130.25;146637;606;45020;-77
2022/11/12 06:55:49;;;;;;;;;25.00;22.00;;;;;14.84;74.52;102129.06;146635;570;45014;-76
2022/11/12 06:58:55;;;;;;;;;16.25;14.25;;;;;14.80;74.42;102137.56;146639;606;44050;-78
2022/11/12 07:02:12;;;;;;;;;20.25;18.25;;;;;14.81;73.12;102136.72;146638;590;44016;-77
2022/11/12 07:05:20;;;;;;;;;19.25;17.75;;;;;14.91;73.77;102139.03;146638;576;45020;-77
2022/11/12 07:08:21;;;;;;;;;23.00;18.50;;;;;15.00;72.97;102144.78;146637;672;45012;-81
2022/11/12 07:11:23;;;;;;;;;15.50;14.50;;;;;15.08;73.05;102153.06;146637;590;45020;-78
2022/11/12 07:14:34;;;;;;;;;15.00;13.50;;;;;15.07;71.92;102145.13;146635;618;46012;-76
2022/11/12 07:17:32;;;;;;;;;9.50;8.00;;;;;15.11;72.01;102155.84;146638;670;45020;-77
2022/11/12 07:20:30;;;;;;;;;11.75;10.75;;;;;15.17;72.06;102157.88;146639;575;46015;-69
2022/11/12 07:23:25;;;;;;;;;12.00;10.25;;;;;15.25;71.96;102156.59;146637;619;45020;-71
2022/11/12 07:26:20;;;;;;;;;10.25;9.25;;;;;15.30;71.01;102151.63;146633;565;45918;-71
2022/11/12 07:29:12;;;;;;;;;9.00;8.75;;;;;15.35;70.30;102144.91;146645;633;45011;-73
2022/11/12 07:32:16;;;;;;;;;7.00;7.00;;;;;15.34;69.99;102136.19;146640;587;45016;-68
2022/11/12 07:35:10;;;;;;;;;12.00;10.50;;;;;15.45;70.38;102155.06;146644;564;46010;-72
2022/11/12 07:38:05;;;;;;;;;6.75;6.75;;;;;15.53;70.53;102159.00;146630;582;46014;-70
2022/11/12 07:40:52;;;;;;;;;8.75;8.25;;;;;15.60;72.35;102163.72;146712;565;46012;-69
2022/11/12 07:43:54;;;;;;;;;21.50;19.50;;;;;15.67;70.01;102162.41;146623;577;46017;-70
2022/11/12 07:47:01;;;;;;;;;20.25;19.00;;;;;15.62;69.67;102164.72;146620;591;46020;-70
2022/11/12 07:49:54;;;;;;;;;14.50;12.00;;;;;15.51;70.35;102165.84;146619;660;46016;-70
2022/11/12 07:52:51;;;;;;;;;14.75;13.75;;;;;15.40;70.09;102172.22;146621;601;46010;-70
2022/11/12 07:55:56;;;;;;;;;19.25;16.00;;;;;15.38;70.77;102166.00;146621;664;46016;-69
2022/11/12 07:59:06;;;;;;;;;16.25;15.00;;;;;15.41;70.70;102164.44;146620;581;46020;-70
2022/11/12 08:02:08;;;;;;;;;;;;;;;;;;;;;
2022/11/12 08:05:02;;;;;;;;;16.75;15.75;;;;;15.57;70.53;102145.25;146621;579;46021;-68
2022/11/12 08:07:58;;;;;;;;;13.75;12.75;;;;;15.66;69.47;102130.06;146618;579;46016;-71
2022/11/12 08:11:00;;;;;;;;;6.50;5.75;;;;;15.73;65.68;102130.41;146621;611;46021;-70
2022/11/12 08:14:03;;;;;;;;;6.75;4.75;;;;;15.70;63.65;102128.56;146624;577;46916;-70
2022/11/12 08:17:06;;;;;;;;;44.50;37.00;;;;;15.68;63.98;102128.47;146630;573;46020;-70
2022/11/12 08:20:05;;;;;;;;;108.67;99.00;;;;;15.68;62.19;102125.84;146620;584;46916;-69
2022/11/12 08:23:04;;;;;;;;;60.50;47.00;;;;;15.75;64.67;102132.31;146623;569;47010;-68
2022/11/12 08:26:06;;;;;;;;;63.50;50.50;;;;;15.85;65.00;102128.44;146617;608;46017;-70
2022/11/12 08:29:16;;;;;;;;;39.50;31.25;;;;;15.82;67.71;102116.09;146620;570;46020;-71
2022/11/12 08:32:28;;;;;;;;;33.75;30.50;;;;;15.83;67.56;102131.00;146619;763;46016;-70
2022/11/12 08:35:20;;;;;;;;;44.50;37.25;;;;;15.83;67.20;102140.56;146622;745;46020;-69
2022/11/12 08:38:23;;;;;;;;;17.25;13.75;;;;;15.91;66.43;102152.31;146617;573;46016;-70
2022/11/12 08:41:32;;;;;;;;;8.75;8.00;;;;;16.00;65.32;102172.81;146638;615;45011;-71
2022/11/12 08:44:38;;;;;;;;;13.25;10.50;;;;;15.93;66.68;102145.44;146641;709;46012;-71
2022/11/12 08:47:31;;;;;;;;;11.25;10.00;;;;;15.98;66.56;102154.44;146636;643;45020;-71
2022/11/12 08:50:23;;;;;;;;;14.75;14.50;;;;;15.99;66.05;102152.72;146637;564;45001;-72
2022/11/12 08:53:26;;;;;;;;;18.00;15.50;;;;;16.04;66.85;102154.72;146635;587;45020;-71
2022/11/12 08:56:24;;;;;;;;;13.25;13.25;;;;;16.15;65.90;102157.91;146634;609;45032;-71
2022/11/12 08:59:27;;;;;;;;;14.75;12.25;;;;;16.26;64.90;102150.59;146637;582;45031;-74
2022/11/12 09:02:24;;;;;;;;;10.50;9.75;;;;;16.32;65.29;102138.75;146636;629;45012;-75
2022/11/12 09:05:26;;;;;;;;;17.75;14.75;;;;;16.38;65.06;102151.22;146642;586;45021;-75
2022/11/12 09:08:24;;;;;;;;;13.25;12.25;;;;;16.44;65.20;102148.91;146636;571;45016;-73
2022/11/12 09:11:23;;;;;;;;;18.00;14.50;;;;;16.54;64.77;102158.13;146638;675;45010;-72
2022/11/12 09:14:20;;;;;;;;;14.75;13.25;;;;;16.63;64.97;102150.72;146633;630;45016;-77
2022/11/12 09:17:14;;;;;;;;;18.75;14.75;;;;;16.71;65.41;102146.78;146638;564;45018;-75
2022/11/12 09:20:17;;;;;;;;;7.25;7.25;;;;;16.74;64.19;102140.78;146633;710;45029;-76
2022/11/12 09:23:18;;;;;;;;;10.75;9.50;;;;;16.77;64.38;102136.62;146643;569;45020;-76
2022/11/12 09:26:10;;;;;;;;;13.00;12.50;;;;;16.83;64.42;102136.03;146638;574;45016;-74
2022/11/12 09:29:05;;;;;;;;;13.75;13.75;;;;;16.90;64.43;102134.59;146638;588;45020;-77
2022/11/12 09:31:58;;;;;;;;;15.00;15.00;;;;;16.96;64.22;102134.91;146632;595;46012;-76
2022/11/12 09:35:00;;;;;;;;;19.25;17.25;;;;;16.98;63.30;102142.00;146635;602;46012;-77
2022/11/12 09:37:55;;;;;;;;;11.50;10.75;;;;;16.95;62.68;102141.87;146633;565;45012;-73
2022/11/12 09:41:19;;;;;;;;;25.75;22.75;;;;;16.88;63.21;102144.09;146620;635;46021;-72
2022/11/12 09:44:34;;;;;;;;;23.50;21.00;;;;;16.75;63.68;102134.72;146617;590;46014;-77
2022/11/12 09:47:52;;;;;;;;;21.50;20.75;;;;;16.65;64.31;102124.63;146621;593;46013;-78
2022/11/12 09:51:22;;;;;;;;;15.25;13.50;;;;;16.56;64.81;102127.69;146616;608;46016;-81
2022/11/12 09:54:48;;;;;;;;;24.50;20.50;;;;;16.54;65.93;102124.09;146615;630;46020;-76
2022/11/12 09:57:54;;;;;;;;;19.75;17.00;;;;;13.83;65.85;101646.03;146617;604;46016;-78
2022/11/12 10:01:29;;;;;;;;;23.00;22.00;;;;;16.51;67.78;102119.62;146620;571;46020;-78
2022/11/12 10:05:00;;;;;;;;;24.00;21.25;;;;;16.47;67.75;102107.19;146620;588;46012;-78
2022/11/12 10:08:20;;;;;;;;;23.25;20.00;;;;;16.48;68.42;102103.75;146622;593;46010;-79
2022/11/12 10:19:45;;;;;;;;;25.25;23.00;;;;;16.43;67.60;102125.28;146618;639;46012;-78
2022/11/12 10:23:10;;;;;;;;;21.75;19.25;;;;;16.43;67.84;102113.09;146621;569;46020;-78
2022/11/12 10:26:15;;;;;;;;;16.50;15.00;;;;;16.33;67.62;102119.59;146616;608;46016;-79
2022/11/12 10:29:55;;;;;;;;;7.50;7.50;;;;;16.23;66.41;102125.19;146624;574;45020;-79
2022/11/12 10:32:51;;;;;;;;;5.00;4.50;;;;;16.17;66.90;102132.75;146619;620;46017;-80
2022/11/12 10:35:54;;;;;;;;;3.00;3.00;;;;;16.11;67.21;102132.44;146618;601;46020;-79
2022/11/12 10:38:56;;;;;;;;;5.50;5.50;;;;;16.08;67.28;102127.94;146618;658;46016;-79
2022/11/12 10:42:17;;;;;;;;;9.00;9.00;;;;;16.05;68.14;102125.16;146627;583;45029;-78
2022/11/12 10:45:46;;;;;;;;;6.00;6.00;;;;;15.99;68.40;102118.72;146617;587;46016;-77
2022/11/12 10:48:39;;;;;;;;;10.25;9.00;;;;;16.02;69.32;102131.97;146620;583;46021;-74
2022/11/12 10:51:44;;;;;;;;;19.00;17.00;;;;;15.90;69.10;102129.59;146619;654;46016;-73
2022/11/12 10:54:42;;;;;;;;;66.50;49.75;;;;;15.75;68.82;102119.22;146624;604;45035;-75
2022/11/12 10:57:40;;;;;;;;;48.50;37.75;;;;;15.62;71.11;102111.53;146612;634;46016;-73
2022/11/12 11:01:18;;;;;;;;;31.00;28.75;;;;;15.56;71.23;102104.25;146620;590;46010;-74
2022/11/12 11:04:43;;;;;;;;;25.75;23.25;;;;;15.60;71.53;102119.28;146619;590;46014;-75
2022/11/12 11:07:56;;;;;;;;;22.50;21.00;;;;;15.64;71.50;102120.38;146621;601;46010;-75
2022/11/12 11:10:49;;;;;;;;;21.00;20.75;;;;;15.65;72.57;102117.81;146619;581;46012;-73
2022/11/12 11:13:41;;;;;;;;;22.25;21.25;;;;;15.71;72.50;102119.91;146621;582;46010;-73
2022/11/12 11:17:01;;;;;;;;;25.50;20.50;;;;;15.74;72.79;102120.06;146615;593;46017;-73
2022/11/12 11:20:00;;;;;;;;;42.50;34.75;;;;;15.77;74.15;102114.97;146622;732;46010;-73
2022/11/12 11:23:23;;;;;;;;;57.25;45.50;;;;;15.74;73.05;102109.59;146621;637;46012;-70
2022/11/12 11:27:01;;;;;;;;;44.00;35.00;;;;;15.62;72.36;102073.19;146621;620;46010;-73
2022/11/12 11:30:12;;;;;;;;;26.75;22.25;;;;;15.75;71.44;102090.47;146614;619;46016;-73
2022/11/12 11:33:44;;;;;;;;;20.75;19.00;;;;;15.73;70.64;102097.31;146701;571;46022;-75
2022/11/12 11:37:25;;;;;;;;;18.25;17.00;;;;;13.30;69.53;101688.34;146619;572;46016;-73
2022/11/12 11:40:55;;;;;;;;;22.00;20.25;;;;;15.57;71.01;102079.00;146619;607;46021;-73
2022/11/12 11:44:25;;;;;;;;;21.25;19.25;;;;;15.70;70.45;102099.81;146616;570;46012;-73
2022/11/12 11:48:01;;;;;;;;;28.00;27.50;;;;;15.74;70.70;102100.84;146618;582;46020;-73
2022/11/12 11:51:49;;;;;;;;;32.00;28.50;;;;;15.75;71.66;102095.69;146613;657;47016;-71
2022/11/12 11:55:55;;;;;;;;;;;;;;;;;;;;;
2022/11/12 11:59:28;;;;;;;;;21.25;19.75;;;;;15.74;69.37;102096.53;146614;656;47014;-76
2022/11/12 12:02:52;;;;;;;;;13.25;13.25;;;;;15.66;67.15;102101.28;146619;584;46010;-74
2022/11/12 12:06:29;;;;;;;;;21.50;19.50;;;;;15.55;68.37;102101.56;146613;595;46917;-74
2022/11/12 12:10:03;;;;;;;;;17.50;14.00;;;;;14.24;70.91;101869.06;146708;572;46015;-75
2022/11/12 12:13:16;;;;;;;;;19.75;17.75;;;;;15.56;69.80;102106.88;146617;573;46016;-74
2022/11/12 12:16:58;;;;;;;;;15.50;14.75;;;;;15.39;69.93;102086.75;146620;592;48010;-78
2022/11/12 12:20:28;;;;;;;;;15.75;15.00;;;;;15.35;69.58;102079.59;146617;813;46016;-75
2022/11/12 12:24:05;;;;;;;;;41.75;31.50;;;;;15.29;69.94;102059.25;146623;629;46021;-73
2022/11/12 12:27:18;;;;;;;;;19.00;16.00;;;;;15.41;70.32;102087.75;146615;686;46915;-74
2022/11/12 12:30:42;;;;;;;;;;;;;;;;;;;;;
2022/11/12 12:34:15;;;;;;;;;14.50;11.50;;;;;15.46;71.04;102091.53;146616;570;46019;-74
2022/11/12 12:37:32;;;;;;;;;15.50;12.50;;;;;15.44;71.95;102094.03;146620;597;46020;-75
2022/11/12 12:40:48;;;;;;;;;27.50;25.00;;;;;15.44;72.93;102096.66;146617;622;46916;-77
2022/11/12 12:43:56;;;;;;;;;17.00;15.75;;;;;15.44;73.75;102098.37;146706;576;46023;-74
2022/11/12 12:47:02;;;;;;;;;15.50;13.25;;;;;15.38;73.11;102085.88;146619;601;45037;-76
2022/11/12 12:50:08;;;;;;;;;26.25;24.50;;;;;15.31;73.25;102094.22;146620;605;46030;-74
2022/11/12 12:53:39;;;;;;;;;14.00;9.75;;;;;15.17;74.67;102100.38;146611;625;47918;-73
2022/11/12 12:56:53;;;;;;;;;9.75;8.00;;;;;15.00;73.87;102096.88;146624;702;46010;-74
2022/11/12 12:59:51;;;;;;;;;29.00;25.75;;;;;14.91;76.30;102089.41;146617;566;46017;-75
2022/11/12 13:02:47;;;;;;;;;12.25;11.75;;;;;14.83;75.40;102095.94;146622;569;46010;-74
2022/11/12 13:05:50;;;;;;;;;19.00;16.00;;;;;14.78;75.13;102095.66;146616;596;46016;-74
2022/11/12 13:08:44;;;;;;;;;18.00;15.50;;;;;14.76;77.43;102091.16;146618;626;46012;-73
2022/11/12 13:15:57;;;;;;;;;;;;;;;;;;;;;
2022/11/12 13:19:33;;;;;;;;;22.25;20.50;;;;;14.53;75.27;102082.06;146615;629;46916;-74
2022/11/12 13:22:56;;;;;;;;;29.75;26.50;;;;;14.51;76.25;102084.56;146624;565;46010;-74
2022/11/12 13:25:49;;;;;;;;;15.75;10.75;;;;;14.57;77.67;102097.06;146615;625;46012;-73
2022/11/12 13:29:46;;;;;;;;;16.50;15.50;;;;;14.47;76.10;102089.50;146613;604;47010;-74
2022/11/12 13:33:19;;;;;;;;;12.25;12.25;;;;;14.49;76.47;102093.12;146613;649;46914;-75
2022/11/12 13:36:32;;;;;;;;;10.25;10.25;;;;;14.50;76.36;102076.63;146621;579;46010;-74
2022/11/12 13:39:44;;;;;;;;;18.25;17.75;;;;;14.51;78.20;102070.63;146618;601;46012;-74
2022/11/12 13:42:47;;;;;;;;;30.00;28.25;;;;;14.50;77.64;102074.03;146623;592;46012;-75
2022/11/12 13:45:57;;;;;;;;;21.25;18.00;;;;;14.50;77.26;102063.56;146618;587;47012;-73
2022/11/12 13:49:17;;;;;;;;;19.75;18.50;;;;;14.45;76.52;102065.00;146623;597;46010;-74
2022/11/12 13:52:26;;;;;;;;;19.00;18.25;;;;;13.47;77.58;101880.38;146618;572;46016;-75
2022/11/12 13:55:29;;;;;;;;;20.25;17.25;;;;;13.40;77.72;101852.19;146622;615;46012;-75
2022/11/12 13:58:59;;;;;;;;;26.75;24.00;;;;;14.73;77.70;102063.16;146617;567;46017;-75
2022/11/12 14:01:57;;;;;;;;;45.50;35.25;;;;;14.77;79.37;102057.31;146614;583;46020;-76
2022/11/12 14:05:07;;;;;;;;;34.25;31.00;;;;;14.78;77.64;102053.91;146615;616;46017;-75
2022/11/12 14:08:58;;;;;;;;;46.25;36.00;;;;;14.70;76.56;102029.09;146622;616;46010;-78
2022/11/12 14:12:36;;;;;;;;;43.75;36.50;;;;;14.87;76.33;102044.78;146621;590;46013;-75
2022/11/12 14:16:06;;;;;;;;;33.50;28.75;;;;;14.93;75.67;102050.34;146621;611;45022;-77
2022/11/12 14:19:39;;;;;;;;;35.75;28.50;;;;;14.97;75.91;102060.13;146616;637;46016;-75
2022/11/12 14:22:50;;;;;;;;;43.25;35.00;;;;;14.79;75.94;102029.56;146623;798;46010;-77
2022/11/12 14:26:15;;;;;;;;;31.25;26.50;;;;;14.14;75.88;101917.19;146618;599;46016;-77
2022/11/12 14:29:31;;;;;;;;;31.00;28.50;;;;;14.88;76.59;102044.84;146618;639;46010;-76
2022/11/12 14:32:46;;;;;;;;;32.75;28.75;;;;;14.86;77.16;102058.62;146619;698;46016;-74
2022/11/12 14:35:45;;;;;;;;;38.00;32.25;;;;;14.83;76.73;102055.84;146618;666;46021;-75
2022/11/12 14:38:59;;;;;;;;;49.75;39.50;;;;;14.79;75.84;102053.06;146618;595;46919;-75
2022/11/12 14:41:53;;;;;;;;;41.25;34.75;;;;;14.71;77.25;102033.50;146615;583;47008;-75
2022/11/12 14:44:48;;;;;;;;;37.25;30.75;;;;;14.74;77.54;102057.16;146617;565;46016;-79
2022/11/12 14:47:44;;;;;;;;;54.50;44.00;;;;;14.71;77.26;102056.09;146616;636;48012;-76
2022/11/12 14:50:40;;;;;;;;;83.67;74.67;;;;;14.68;77.74;102055.94;146615;640;46017;-76
2022/11/12 14:53:39;;;;;;;;;74.50;59.50;;;;;14.63;77.77;102058.25;146625;566;46020;-76
2022/11/12 14:56:51;;;;;;;;;85.00;76.67;;;;;14.62;76.80;102076.47;146624;565;46012;-76
2022/11/12 14:59:48;;;;;;;;;60.67;45.00;;;;;14.58;77.47;102067.56;146625;592;46020;-76
2022/11/12 15:03:15;;;;;;;;;68.75;53.50;;;;;14.51;78.05;102065.41;146621;619;46016;-75
2022/11/12 15:06:38;;;;;;;;;50.00;40.25;;;;;14.50;79.97;102074.91;146617;677;46020;-75